»·PEaware :: N698SP KSMX-KBFL

N698SP :: KSMX-KBFL

FLIGHT INFORMATION

Flight Status: Arrived
Operator: Privately registered:
United States
More flights under this callsign
Pilot: Dominik G. (31997)
Aircraft: CESSNA 172 SKYHAWK
(C172)
More flights by this aircraft type
Origin: KSMX Santa Maria Pub/Capt Hancock
United States
Destination: KBFL Meadows
United States
More flights between these airports :: More routes between these airports
Route:
File this flight plan on PilotEdge
Remarks:
Altitude:
(Current/Filed)
0ft
Speed:
(Current/Filed)
0kts
Departed: 30-Dec-20 04:43 PM
Arrived: 30-Dec-20 05:33 PM
Distance/Time
Traveled:
76nm/0:50
Distance/Time
To Go:
Arrived

Flight Plot

Page will automatically refresh every two minutes.


Map Options




Map Legend


Flown Route
Filed Route
Departure Airport
Arrival Airport
Navaid (VOR, NDB)
Fix

Horizontal Profiles

Position Reports

Time Latitude Longitude Heading Altitude Ground
Speed
30-Dec-20 16:36 34.890854 -120.449123 30 265ft 0kts
30-Dec-20 16:37 34.890854 -120.449123 30 265ft 0kts
30-Dec-20 16:38 34.890854 -120.449123 29 265ft 0kts
30-Dec-20 16:39 34.891125 -120.447629 88 265ft 0kts
30-Dec-20 16:40 34.892064 -120.446340 43 265ft 0kts
30-Dec-20 16:41 34.892085 -120.446315 44 265ft 3kts
30-Dec-20 16:42 34.900394 -120.454219 319 740ft 65kts
30-Dec-20 16:43 34.919918 -120.453404 356 1826ft 71kts
30-Dec-20 16:44 34.923782 -120.427603 95 2790ft 95kts
30-Dec-20 16:45 34.922172 -120.394862 88 3714ft 98kts
30-Dec-20 16:46 34.920563 -120.361417 90 4591ft 100kts
30-Dec-20 16:47 34.926444 -120.329515 62 5515ft 96kts
30-Dec-20 16:48 34.935249 -120.298922 60 6400ft 96kts
30-Dec-20 16:49 34.946407 -120.269859 43 7207ft 93kts
30-Dec-20 16:50 34.960681 -120.243228 49 7623ft 96kts
30-Dec-20 16:51 34.971805 -120.212321 61 7645ft 101kts
30-Dec-20 16:52 34.980828 -120.179440 55 7635ft 99kts
30-Dec-20 16:53 34.991857 -120.147276 55 7618ft 99kts
30-Dec-20 16:54 35.003004 -120.114829 55 7601ft 100kts
30-Dec-20 16:55 35.013807 -120.083420 55 7585ft 100kts
30-Dec-20 16:56 35.024636 -120.052012 55 7571ft 102kts
30-Dec-20 16:57 35.036219 -120.019211 55 7560ft 106kts
30-Dec-20 16:58 35.048168 -119.985771 55 7547ft 107kts
30-Dec-20 16:59 35.060217 -119.952050 55 7533ft 108kts
30-Dec-20 17:00 35.072331 -119.918060 55 7519ft 108kts
30-Dec-20 17:01 35.084815 -119.884790 53 7505ft 107kts
30-Dec-20 17:02 35.097640 -119.851682 53 7492ft 107kts
30-Dec-20 17:03 35.110457 -119.818545 53 7501ft 107kts
30-Dec-20 17:04 35.123223 -119.785476 53 7515ft 107kts
30-Dec-20 17:05 35.136019 -119.752292 53 7530ft 107kts
30-Dec-20 17:06 35.148798 -119.719164 53 7545ft 108kts
30-Dec-20 17:07 35.161601 -119.685854 54 7560ft 108kts
30-Dec-20 17:08 35.174049 -119.652282 54 7576ft 108kts
30-Dec-20 17:09 35.183932 -119.625663 54 7588ft 108kts
30-Dec-20 17:10 35.196485 -119.591902 54 7604ft 109kts
30-Dec-20 17:11 35.209062 -119.558129 54 7620ft 109kts
30-Dec-20 17:12 35.221675 -119.524314 54 7637ft 109kts
30-Dec-20 17:13 35.223753 -119.518748 54 7639ft 109kts
30-Dec-20 17:14 35.223753 -119.518748 54 7639ft 109kts
30-Dec-20 17:15 35.236075 -119.485701 54 7656ft 109kts
30-Dec-20 17:16 35.248671 -119.451809 55 7673ft 109kts
30-Dec-20 17:17 35.261248 -119.417845 55 7691ft 109kts
30-Dec-20 17:18 35.273782 -119.383867 55 7709ft 109kts
30-Dec-20 17:19 35.286395 -119.349547 55 7727ft 109kts
30-Dec-20 17:20 35.298814 -119.315416 56 7624ft 110kts
30-Dec-20 17:21 35.311957 -119.280491 56 6908ft 118kts
30-Dec-20 17:22 35.326674 -119.244013 56 5904ft 120kts
30-Dec-20 17:23 35.342062 -119.207731 56 4901ft 120kts
30-Dec-20 17:24 35.361581 -119.175985 38 3900ft 116kts
30-Dec-20 17:25 35.384973 -119.150631 20 2922ft 104kts
30-Dec-20 17:26 35.410599 -119.146402 335 2508ft 94kts
30-Dec-20 17:27 35.432440 -119.146246 76 2542ft 106kts
30-Dec-20 17:28 35.431381 -119.108492 96 1995ft 112kts
30-Dec-20 17:29 35.429975 -119.071063 120 1506ft 98kts
30-Dec-20 17:30 35.416245 -119.045938 100 1288ft 72kts
30-Dec-20 17:31 35.428586 -119.049805 310 575ft 62kts
30-Dec-20 17:32 35.436322 -119.058145 40 494ft 6kts
30-Dec-20 17:33 35.436516 -119.057918 43 495ft 0kts
30-Dec-20 17:34 35.434376 -119.054602 134 496ft 25kts
30-Dec-20 17:35 35.430057 -119.049357 137 494ft 17kts
30-Dec-20 17:36 35.429455 -119.046429 18 499ft 7kts
30-Dec-20 17:37 35.429806 -119.046408 341 501ft 0kts
30-Dec-20 17:38 35.429806 -119.046408 341 501ft 0kts
30-Dec-20 17:39 35.429806 -119.046408 341 501ft 0kts
30-Dec-20 17:40 35.429806 -119.046408 341 501ft 0kts
30-Dec-20 17:41 35.429806 -119.046408 341 501ft 0kts
30-Dec-20 17:42 35.429806 -119.046408 341 501ft 0kts
30-Dec-20 17:43 35.429806 -119.046408 341 501ft 0kts
30-Dec-20 17:44 35.429806 -119.046408 341 501ft 0kts
30-Dec-20 17:45 35.429806 -119.046408 341 501ft 0kts
30-Dec-20 17:47 35.429806 -119.046408 341 501ft 0kts

Navigation Log

Ident Type
Flight plan parsing failed, navigation log unavailable